createdAt,value
2022-11-08T00:02:26.055Z,55.91
2022-11-08T00:04:53.232Z,55.81
2022-11-08T00:07:38.749Z,55.79
2022-11-08T00:10:27.585Z,55.84
2022-11-08T00:13:13.017Z,55.99
2022-11-08T00:15:39.946Z,56.08
2022-11-08T00:18:08.044Z,55.94
2022-11-08T00:20:35.090Z,56.21
2022-11-08T00:23:02.143Z,56.01
2022-11-08T00:25:30.454Z,56.17
2022-11-08T00:27:57.859Z,56.11
2022-11-08T00:30:24.819Z,55.95
2022-11-08T00:32:51.802Z,55.92
2022-11-08T00:35:18.748Z,55.78
2022-11-08T00:37:45.703Z,55.64
2022-11-08T00:40:13.164Z,55.71
2022-11-08T00:42:41.422Z,55.58
2022-11-08T00:45:09.161Z,55.50
2022-11-08T00:47:36.096Z,55.57
2022-11-08T00:50:03.371Z,55.77
2022-11-08T00:52:30.378Z,55.68
2022-11-08T00:54:57.310Z,55.73
2022-11-08T00:57:35.889Z,55.90
2022-11-08T01:00:14.544Z,55.85
2022-11-08T01:02:41.936Z,55.79
2022-11-08T01:05:09.311Z,55.53
2022-11-08T01:07:38.219Z,55.39
2022-11-08T01:10:07.508Z,55.54
2022-11-08T01:12:34.445Z,55.33
2022-11-08T01:15:01.509Z,55.45
2022-11-08T01:17:29.837Z,55.26
2022-11-08T01:19:56.816Z,55.48
2022-11-08T01:22:23.765Z,55.23
2022-11-08T01:24:50.710Z,55.00
2022-11-08T01:27:17.669Z,55.21
2022-11-08T01:29:44.606Z,55.29
2022-11-08T01:32:11.521Z,55.25
2022-11-08T01:34:39.802Z,55.34
2022-11-08T01:37:06.726Z,55.44
2022-11-08T01:39:33.888Z,55.50
2022-11-08T01:42:00.822Z,55.49
2022-11-08T01:44:27.856Z,55.19
2022-11-08T01:46:54.818Z,55.43
2022-11-08T01:49:52.872Z,55.54
2022-11-08T01:52:29.699Z,55.66
2022-11-08T01:55:16.377Z,55.84
2022-11-08T01:57:51.363Z,55.98
2022-11-08T02:00:19.771Z,56.18
2022-11-08T02:02:54.527Z,56.02
2022-11-08T02:05:26.931Z,56.14
2022-11-08T02:08:02.091Z,56.06
2022-11-08T02:10:35.761Z,56.36
2022-11-08T02:13:05.168Z,56.27
2022-11-08T02:15:33.382Z,56.33
2022-11-08T02:18:00.734Z,56.62
2022-11-08T02:20:29.357Z,56.49
2022-11-08T02:23:05.290Z,56.68
2022-11-08T02:25:33.941Z,56.95
2022-11-08T02:28:00.936Z,57.18
2022-11-08T02:30:36.798Z,57.08
2022-11-08T02:33:15.559Z,57.12
2022-11-08T02:35:46.204Z,57.17
2022-11-08T02:38:13.165Z,57.17
2022-11-08T02:40:49.611Z,57.09
2022-11-08T02:43:16.678Z,57.24
2022-11-08T02:45:43.987Z,57.47
2022-11-08T02:48:11.348Z,57.61
2022-11-08T02:50:38.357Z,57.51
2022-11-08T02:53:05.719Z,57.61
2022-11-08T02:55:34.736Z,57.82
2022-11-08T02:58:04.930Z,58.18
2022-11-08T03:00:32.569Z,58.26
2022-11-08T03:02:59.591Z,58.18
2022-11-08T03:05:28.526Z,58.27
2022-11-08T03:07:56.704Z,58.37
2022-11-08T03:10:27.707Z,58.40
2022-11-08T03:12:58.478Z,58.44
2022-11-08T03:15:28.116Z,58.55
2022-11-08T03:17:56.332Z,58.53
2022-11-08T03:20:28.311Z,58.40
2022-11-08T03:22:59.620Z,58.55
2022-11-08T03:25:27.057Z,58.31
2022-11-08T03:27:54.074Z,58.60
2022-11-08T03:30:21.914Z,58.40
2022-11-08T03:32:50.544Z,58.60
2022-11-08T03:35:17.525Z,59.00
2022-11-08T03:37:50.591Z,58.79
2022-11-08T03:40:18.726Z,58.61
2022-11-08T03:42:46.294Z,58.83
2022-11-08T03:45:14.958Z,58.83
2022-11-08T03:47:44.937Z,59.21
2022-11-08T03:50:15.909Z,59.21
2022-11-08T03:52:43.814Z,59.18
2022-11-08T03:55:12.314Z,58.84
2022-11-08T03:57:41.179Z,59.41
2022-11-08T04:00:11.639Z,59.21
2022-11-08T04:02:40.103Z,59.53
2022-11-08T04:05:09.392Z,59.46
2022-11-08T04:07:38.195Z,59.29
2022-11-08T04:10:08.296Z,59.85
2022-11-08T04:12:57.130Z,59.67
2022-11-08T04:15:25.606Z,59.64
2022-11-08T04:18:13.179Z,59.74
2022-11-08T04:21:00.465Z,59.78
2022-11-08T04:23:30.626Z,59.70
2022-11-08T04:25:59.977Z,59.75
2022-11-08T04:28:30.366Z,59.98
2022-11-08T04:30:59.978Z,59.88
2022-11-08T04:33:27.479Z,59.81
2022-11-08T04:35:54.619Z,59.93
2022-11-08T04:38:22.107Z,59.63
2022-11-08T04:40:50.428Z,59.50
2022-11-08T04:43:17.365Z,59.36
2022-11-08T04:45:44.377Z,59.25
2022-11-08T04:48:11.551Z,59.22
2022-11-08T04:50:38.535Z,59.47
2022-11-08T04:53:05.480Z,59.20
2022-11-08T04:55:32.529Z,59.20
2022-11-08T04:58:00.855Z,59.45
2022-11-08T05:00:27.996Z,59.26
2022-11-08T05:02:55.126Z,59.66
2022-11-08T05:05:22.862Z,59.47
2022-11-08T05:07:49.945Z,59.14
2022-11-08T05:10:17.223Z,59.29
2022-11-08T05:12:44.275Z,59.19
2022-11-08T05:15:13.162Z,59.36
2022-11-08T05:17:40.193Z,59.32
2022-11-08T05:20:28.913Z,59.19
2022-11-08T05:23:20.060Z,58.94
2022-11-08T05:25:47.229Z,59.67
2022-11-08T05:28:14.489Z,59.51
2022-11-08T05:30:43.042Z,59.21
2022-11-08T05:33:10.461Z,59.25
2022-11-08T05:35:37.453Z,59.42
2022-11-08T05:38:04.439Z,59.65
2022-11-08T05:40:33.597Z,59.39
2022-11-08T05:43:00.983Z,59.17
2022-11-08T05:45:28.309Z,59.38
2022-11-08T05:47:57.682Z,59.40
2022-11-08T05:50:25.027Z,59.69
2022-11-08T05:52:54.774Z,59.74
2022-11-08T05:55:22.015Z,59.55
2022-11-08T05:57:49.340Z,59.34
2022-11-08T06:00:17.551Z,59.14
2022-11-08T06:02:44.992Z,59.21
2022-11-08T06:05:13.756Z,59.28
2022-11-08T06:07:40.728Z,59.29
2022-11-08T06:10:09.140Z,59.19
2022-11-08T06:12:38.000Z,59.21
2022-11-08T06:15:06.666Z,59.26
2022-11-08T06:17:34.548Z,59.16
2022-11-08T06:20:01.637Z,59.24
2022-11-08T06:22:32.572Z,59.16
2022-11-08T06:25:00.026Z,59.10
2022-11-08T06:27:27.735Z,58.91
2022-11-08T06:29:54.726Z,58.52
2022-11-08T06:32:21.831Z,58.57
2022-11-08T06:34:49.137Z,58.66
2022-11-08T06:37:16.635Z,58.43
2022-11-08T06:39:44.988Z,58.50
2022-11-08T06:42:12.114Z,58.30
2022-11-08T06:44:39.121Z,58.40
2022-11-08T06:47:06.241Z,58.60
2022-11-08T06:49:33.380Z,58.57
2022-11-08T06:52:00.385Z,58.40
2022-11-08T06:54:27.631Z,58.75
2022-11-08T06:56:56.026Z,58.95
2022-11-08T06:59:23.190Z,59.21
2022-11-08T07:01:50.308Z,58.91
2022-11-08T07:04:17.380Z,58.95
2022-11-08T07:06:44.361Z,59.19
2022-11-08T07:09:17.988Z,59.04
2022-11-08T07:11:45.056Z,59.15
2022-11-08T07:14:13.435Z,59.29
2022-11-08T07:16:40.463Z,59.17
2022-11-08T07:19:07.781Z,58.97
2022-11-08T07:21:34.747Z,58.72
2022-11-08T07:24:01.712Z,58.53
2022-11-08T07:26:28.825Z,57.97
2022-11-08T07:28:55.758Z,58.03
2022-11-08T07:31:24.969Z,57.72
2022-11-08T07:33:52.013Z,57.45
2022-11-08T07:36:19.220Z,57.16
2022-11-08T07:38:46.221Z,57.05
2022-11-08T07:41:13.249Z,56.94
2022-11-08T07:43:40.222Z,56.39
2022-11-08T07:46:10.835Z,56.49
2022-11-08T07:48:39.143Z,56.42
2022-11-08T07:51:06.958Z,56.38
2022-11-08T07:53:53.218Z,55.86
2022-11-08T07:56:49.558Z,55.89
2022-11-08T07:59:42.461Z,55.79
2022-11-08T08:02:10.887Z,55.86
2022-11-08T08:04:54.200Z,55.79
2022-11-08T08:07:21.551Z,55.82
2022-11-08T08:10:10.646Z,55.69
2022-11-08T08:13:03.736Z,55.70
2022-11-08T08:15:49.206Z,55.59
2022-11-08T08:18:19.257Z,55.08
2022-11-08T08:20:48.627Z,55.50
2022-11-08T08:23:32.005Z,55.08
2022-11-08T08:26:10.336Z,55.17
2022-11-08T08:29:03.447Z,54.89
2022-11-08T08:31:30.416Z,54.52
2022-11-08T08:33:58.894Z,54.44
2022-11-08T08:36:29.947Z,54.25
2022-11-08T08:38:57.971Z,54.15
2022-11-08T08:41:25.326Z,53.77
2022-11-08T08:43:53.596Z,53.80
2022-11-08T08:46:22.664Z,53.63
2022-11-08T08:49:10.983Z,53.53
2022-11-08T08:51:57.957Z,53.22
2022-11-08T08:54:38.009Z,53.20
2022-11-08T08:57:05.530Z,52.99
2022-11-08T09:02:39.804Z,52.38
2022-11-08T09:05:10.396Z,51.93
2022-11-08T09:07:43.410Z,51.85
2022-11-08T09:10:23.334Z,51.67
2022-11-08T09:12:50.646Z,51.27
2022-11-08T09:15:21.116Z,51.29
2022-11-08T09:17:48.398Z,51.17
2022-11-08T09:20:15.968Z,51.15
2022-11-08T09:22:44.366Z,50.68
2022-11-08T09:25:11.421Z,50.58
2022-11-08T09:27:40.462Z,50.53
2022-11-08T09:30:09.756Z,50.42
2022-11-08T09:32:59.286Z,50.38
2022-11-08T09:35:29.005Z,50.11
2022-11-08T09:37:59.171Z,50.50
2022-11-08T09:40:39.533Z,50.60
2022-11-08T09:43:30.051Z,49.90
2022-11-08T09:45:57.910Z,49.99
2022-11-08T09:48:34.030Z,50.14
2022-11-08T09:51:07.982Z,50.23
2022-11-08T09:53:47.501Z,49.83
2022-11-08T09:56:26.904Z,49.08
2022-11-08T09:59:02.101Z,49.50
2022-11-08T10:01:32.503Z,48.67
2022-11-08T10:04:05.117Z,48.79
2022-11-08T10:06:56.880Z,48.83
2022-11-08T10:09:53.367Z,48.47
2022-11-08T10:12:31.172Z,48.53
2022-11-08T10:15:14.815Z,48.13
2022-11-08T10:18:22.524Z,47.64
2022-11-08T10:21:14.783Z,47.43
2022-11-08T10:23:45.694Z,47.61
2022-11-08T10:26:19.665Z,47.02
2022-11-08T10:28:56.537Z,46.62
2022-11-08T10:31:23.505Z,46.92
2022-11-08T10:33:54.364Z,46.90
2022-11-08T10:36:30.858Z,46.49
2022-11-08T10:39:05.471Z,46.44
2022-11-08T10:41:47.137Z,46.52
2022-11-08T10:44:20.802Z,46.70
2022-11-08T10:46:51.172Z,46.21
2022-11-08T10:49:23.208Z,46.33
2022-11-08T10:51:54.294Z,46.33
2022-11-08T10:54:46.191Z,46.44
2022-11-08T10:57:17.652Z,46.38
2022-11-08T10:59:45.790Z,46.72
2022-11-08T11:02:26.156Z,46.20
2022-11-08T11:05:20.034Z,46.65
2022-11-08T11:08:01.903Z,46.09
2022-11-08T11:10:32.796Z,46.00
2022-11-08T11:13:12.072Z,45.63
2022-11-08T11:15:46.612Z,45.79
2022-11-08T11:18:25.601Z,46.11
2022-11-08T11:21:10.440Z,45.84
2022-11-08T11:23:43.115Z,45.72
2022-11-08T11:26:29.757Z,45.36
2022-11-08T11:29:19.342Z,45.44
2022-11-08T11:31:49.445Z,45.95
2022-11-08T11:34:45.642Z,45.38
2022-11-08T11:37:27.867Z,45.12
2022-11-08T11:40:07.388Z,44.90
2022-11-08T11:42:46.889Z,44.74
2022-11-08T11:45:27.246Z,44.76
2022-11-08T11:47:58.256Z,44.32
2022-11-08T11:50:33.792Z,45.09
2022-11-08T11:53:04.996Z,44.34
2022-11-08T11:55:57.893Z,44.04
2022-11-08T11:58:44.029Z,44.33
2022-11-08T12:01:27.324Z,43.82
2022-11-08T12:04:26.614Z,43.92
2022-11-08T12:07:05.220Z,43.73
2022-11-08T12:09:53.648Z,43.84
2022-11-08T12:12:42.149Z,43.88
2022-11-08T12:15:21.121Z,43.20
2022-11-08T12:18:45.362Z,42.83
2022-11-08T12:21:14.912Z,42.36
2022-11-08T12:24:19.912Z,42.36
2022-11-08T12:27:00.301Z,42.30
2022-11-08T12:29:34.484Z,41.96
2022-11-08T12:32:33.940Z,42.13
2022-11-08T12:35:23.322Z,42.08
2022-11-08T12:38:09.747Z,41.87
2022-11-08T12:40:48.811Z,42.04
2022-11-08T12:43:38.659Z,42.26
2022-11-08T12:46:12.892Z,41.39
2022-11-08T12:49:13.479Z,41.55
2022-11-08T12:52:00.990Z,41.96
2022-11-08T12:54:35.719Z,41.56
2022-11-08T12:57:10.552Z,41.87
2022-11-08T12:59:42.896Z,41.62
2022-11-08T13:02:18.872Z,41.63
2022-11-08T13:04:58.000Z,41.23
2022-11-08T13:07:39.325Z,41.59
2022-11-08T13:10:22.555Z,41.41
2022-11-08T13:13:11.800Z,41.58
2022-11-08T13:16:14.631Z,41.11
2022-11-08T13:18:48.786Z,41.12
2022-11-08T13:21:38.238Z,41.42
2022-11-08T13:24:44.555Z,41.59
2022-11-08T13:27:33.937Z,41.21
2022-11-08T13:30:38.355Z,41.28
2022-11-08T13:33:16.481Z,41.22
2022-11-08T13:36:00.826Z,41.56
2022-11-08T13:38:47.377Z,41.00
2022-11-08T13:41:19.280Z,40.87
2022-11-08T13:43:49.143Z,40.84
2022-11-08T13:46:47.932Z,41.44
2022-11-08T13:49:22.740Z,41.11
2022-11-08T13:51:51.587Z,41.05
2022-11-08T13:54:50.504Z,40.95
2022-11-08T13:57:57.521Z,41.63
2022-11-08T14:00:45.317Z,41.35
2022-11-08T14:03:53.666Z,41.35
2022-11-08T14:06:32.249Z,41.23
2022-11-08T14:09:16.177Z,41.44
2022-11-08T14:11:55.412Z,41.61
2022-11-08T14:14:56.061Z,41.38
2022-11-08T14:17:45.672Z,41.45
2022-11-08T14:20:31.196Z,42.26
2022-11-08T14:23:12.348Z,41.68
2022-11-08T14:25:40.800Z,41.89
2022-11-08T14:28:24.070Z,41.45
2022-11-08T14:30:53.404Z,41.99
2022-11-08T14:33:23.368Z,41.42
2022-11-08T14:35:57.828Z,41.66
2022-11-08T14:38:25.606Z,41.89
2022-11-08T14:40:55.738Z,41.66
2022-11-08T14:43:23.795Z,42.40
2022-11-08T14:45:53.584Z,42.02
2022-11-08T14:48:27.190Z,41.93
2022-11-08T14:51:00.214Z,41.93
2022-11-08T14:53:30.662Z,42.13
2022-11-08T14:56:14.040Z,41.82
2022-11-08T14:58:41.480Z,42.30
2022-11-08T15:01:13.136Z,41.80
2022-11-08T15:03:47.560Z,41.81
2022-11-08T15:06:15.014Z,42.41
2022-11-08T15:08:52.790Z,42.47
2022-11-08T15:11:29.731Z,42.60
2022-11-08T15:14:01.861Z,42.72
2022-11-08T15:16:40.795Z,43.07
2022-11-08T15:19:29.906Z,42.73
2022-11-08T15:22:00.954Z,42.74
2022-11-08T15:24:37.413Z,43.44
2022-11-08T15:27:16.660Z,42.83
2022-11-08T15:29:53.431Z,42.69
2022-11-08T15:32:23.115Z,42.78
2022-11-08T15:34:56.085Z,42.71
2022-11-08T15:37:31.863Z,42.28
2022-11-08T15:40:04.314Z,42.65
2022-11-08T15:42:34.856Z,42.63
2022-11-08T15:45:06.716Z,43.25
2022-11-08T15:47:46.035Z,42.99
2022-11-08T15:50:17.904Z,43.64
2022-11-08T15:52:47.805Z,43.84
2022-11-08T15:55:18.349Z,44.20
2022-11-08T15:57:48.326Z,43.88
2022-11-08T16:00:19.483Z,44.64
2022-11-08T16:02:48.315Z,44.01
2022-11-08T16:05:18.906Z,44.18
2022-11-08T16:07:47.667Z,44.41
2022-11-08T16:10:22.532Z,44.39
2022-11-08T16:12:49.542Z,44.15
2022-11-08T16:15:20.562Z,43.67
2022-11-08T16:17:49.302Z,43.20
2022-11-08T16:20:29.679Z,43.74
2022-11-08T16:22:59.171Z,43.30
2022-11-08T16:25:29.380Z,43.35
2022-11-08T16:27:59.213Z,43.28
2022-11-08T16:30:27.134Z,43.83
2022-11-08T16:32:55.886Z,43.84
2022-11-08T16:35:23.968Z,43.90
2022-11-08T16:37:52.496Z,43.71
2022-11-08T16:40:22.780Z,43.63
2022-11-08T16:42:51.659Z,44.16
2022-11-08T16:45:43.278Z,43.82
2022-11-08T16:48:17.815Z,43.84
2022-11-08T16:50:45.920Z,44.22
2022-11-08T16:53:16.611Z,43.67
2022-11-08T16:55:43.664Z,43.64
2022-11-08T16:58:11.502Z,43.19
2022-11-08T17:00:41.111Z,43.05
2022-11-08T17:03:13.735Z,42.76
2022-11-08T17:05:41.416Z,42.98
2022-11-08T17:08:08.425Z,42.71
2022-11-08T17:10:35.419Z,42.84
2022-11-08T17:13:02.480Z,42.76
2022-11-08T17:15:30.275Z,42.81
2022-11-08T17:17:58.994Z,42.65
2022-11-08T17:20:27.616Z,42.24
2022-11-08T17:22:54.932Z,42.50
2022-11-08T17:25:23.826Z,42.64
2022-11-08T17:27:52.516Z,42.34
2022-11-08T17:30:26.354Z,42.63
2022-11-08T17:32:54.164Z,42.31
2022-11-08T17:35:25.395Z,42.28
2022-11-08T17:37:57.707Z,42.05
2022-11-08T17:40:25.675Z,42.27
2022-11-08T17:42:52.970Z,42.54
2022-11-08T17:45:20.152Z,42.54
2022-11-08T17:47:47.144Z,42.21
2022-11-08T17:50:14.120Z,42.59
2022-11-08T17:52:41.679Z,42.65
2022-11-08T17:55:10.479Z,42.41
2022-11-08T17:57:37.424Z,42.29
2022-11-08T18:00:10.702Z,42.27
2022-11-08T18:02:39.010Z,42.35
2022-11-08T18:05:06.746Z,42.70
2022-11-08T18:07:33.687Z,42.64
2022-11-08T18:10:01.701Z,42.95
2022-11-08T18:12:30.026Z,42.23
2022-11-08T18:14:57.070Z,42.79
2022-11-08T18:17:27.270Z,42.30
2022-11-08T18:19:54.419Z,42.95
2022-11-08T18:22:21.409Z,43.26
2022-11-08T18:24:50.037Z,42.97
2022-11-08T18:27:17.362Z,43.19
2022-11-08T18:29:45.645Z,43.28
2022-11-08T18:32:12.644Z,43.63
2022-11-08T18:34:39.629Z,43.13
2022-11-08T18:37:06.651Z,43.01
2022-11-08T18:39:33.661Z,43.50
2022-11-08T18:42:01.008Z,43.66
2022-11-08T18:44:28.091Z,43.63
2022-11-08T18:46:56.437Z,43.68
2022-11-08T18:49:23.626Z,43.89
2022-11-08T18:51:52.079Z,44.10
2022-11-08T18:54:20.079Z,43.59
2022-11-08T18:56:47.155Z,43.89
2022-11-08T18:59:14.272Z,44.13
2022-11-08T19:01:41.313Z,44.17
2022-11-08T19:04:09.771Z,43.96
2022-11-08T19:06:36.836Z,44.40
2022-11-08T19:09:04.854Z,44.37
2022-11-08T19:11:32.200Z,44.13
2022-11-08T19:14:01.800Z,44.68
2022-11-08T19:16:29.479Z,44.49
2022-11-08T19:18:56.564Z,44.97
2022-11-08T19:21:28.263Z,45.03
2022-11-08T19:23:58.301Z,44.99
2022-11-08T19:26:27.506Z,45.13
2022-11-08T19:28:56.012Z,45.15
2022-11-08T19:31:25.307Z,45.40
2022-11-08T19:33:54.416Z,45.11
2022-11-08T19:36:26.499Z,45.54
2022-11-08T19:38:55.810Z,45.39
2022-11-08T19:41:25.851Z,45.57
2022-11-08T19:43:53.474Z,45.47
2022-11-08T19:46:24.456Z,45.55
2022-11-08T19:48:52.254Z,45.49
2022-11-08T19:51:21.815Z,45.50
2022-11-08T19:53:50.194Z,45.68
2022-11-08T19:56:19.758Z,45.77
2022-11-08T19:58:47.161Z,45.65
2022-11-08T20:01:17.957Z,45.61
2022-11-08T20:03:45.890Z,45.77
2022-11-08T20:06:14.833Z,45.97
2022-11-08T20:08:41.840Z,45.85
2022-11-08T20:11:15.023Z,45.89
2022-11-08T20:13:42.641Z,45.74
2022-11-08T20:16:12.121Z,46.29
2022-11-08T20:18:39.657Z,45.90
2022-11-08T20:21:08.035Z,46.19
2022-11-08T20:23:35.670Z,46.16
2022-11-08T20:26:07.463Z,46.25
2022-11-08T20:28:36.395Z,46.13
2022-11-08T20:31:11.714Z,46.16
2022-11-08T20:33:39.696Z,46.29
2022-11-08T20:36:09.473Z,46.65
2022-11-08T20:38:37.103Z,46.84
2022-11-08T20:41:07.195Z,46.73
2022-11-08T20:43:38.154Z,46.71
2022-11-08T20:46:08.086Z,46.74
2022-11-08T20:48:35.224Z,46.50
2022-11-08T20:51:05.578Z,46.89
2022-11-08T20:53:35.983Z,46.64
2022-11-08T20:56:06.034Z,46.28
2022-11-08T20:58:36.323Z,46.42
2022-11-08T21:01:07.285Z,46.69
2022-11-08T21:03:35.151Z,46.47
2022-11-08T21:06:04.762Z,47.27
2022-11-08T21:11:20.533Z,47.08
2022-11-08T21:13:49.477Z,47.09
2022-11-08T21:16:52.633Z,47.32
2022-11-08T21:19:05.166Z,47.11
2022-11-08T21:21:32.924Z,47.40
2022-11-08T21:24:00.020Z,47.55
2022-11-08T21:26:27.139Z,47.51
2022-11-08T21:28:55.454Z,47.64
2022-11-08T21:31:22.750Z,47.79
2022-11-08T21:33:49.677Z,48.03
2022-11-08T21:36:17.689Z,48.04
2022-11-08T21:38:45.459Z,48.40
2022-11-08T21:41:13.257Z,48.41
2022-11-08T21:43:43.161Z,48.42
2022-11-08T21:46:18.099Z,48.28
2022-11-08T21:48:45.884Z,48.51
2022-11-08T21:51:14.227Z,48.41
2022-11-08T21:53:52.526Z,48.79
2022-11-08T21:56:22.001Z,48.69
2022-11-08T21:58:49.107Z,48.66
2022-11-08T22:01:18.548Z,48.93
2022-11-08T22:03:46.353Z,49.00
2022-11-08T22:06:13.983Z,48.92
2022-11-08T22:08:40.887Z,49.11
2022-11-08T22:11:07.971Z,49.00
2022-11-08T22:13:35.194Z,48.86
2022-11-08T22:16:02.123Z,49.30
2022-11-08T22:18:50.869Z,49.30
2022-11-08T22:21:35.845Z,49.10
2022-11-08T22:24:02.834Z,49.17
2022-11-08T22:26:29.804Z,49.13
2022-11-08T22:28:56.763Z,49.24
2022-11-08T22:31:23.790Z,49.21
2022-11-08T22:33:52.068Z,49.35
2022-11-08T22:36:21.494Z,49.26
2022-11-08T22:38:48.429Z,49.59
2022-11-08T22:41:16.901Z,49.59
2022-11-08T22:43:44.285Z,49.72
2022-11-08T22:46:12.174Z,49.38
2022-11-08T22:48:39.513Z,49.84
2022-11-08T22:51:09.009Z,49.67
2022-11-08T22:53:36.692Z,49.85
2022-11-08T22:56:09.868Z,49.66
2022-11-08T22:58:38.843Z,49.96
2022-11-08T23:01:06.848Z,49.64
2022-11-08T23:03:33.877Z,49.65
2022-11-08T23:06:00.837Z,49.91
2022-11-08T23:08:29.473Z,49.83
2022-11-08T23:11:17.787Z,49.83
2022-11-08T23:14:03.220Z,49.60
2022-11-08T23:16:37.084Z,49.72
2022-11-08T23:19:25.694Z,49.91
2022-11-08T23:22:12.887Z,49.58
2022-11-08T23:24:42.949Z,49.79
2022-11-08T23:27:30.916Z,49.50
2022-11-08T23:30:16.842Z,49.61
2022-11-08T23:32:47.369Z,49.47
2022-11-08T23:35:16.445Z,49.66
2022-11-08T23:37:44.010Z,49.85
2022-11-08T23:40:34.226Z,49.57
2022-11-08T23:43:25.516Z,49.56
2022-11-08T23:45:52.579Z,49.67
2022-11-08T23:48:19.888Z,49.88
2022-11-08T23:50:52.193Z,50.16
2022-11-08T23:53:21.356Z,50.28
2022-11-08T23:55:49.838Z,50.20
2022-11-08T23:58:17.848Z,50.27
